Latest Weather Observations for Moruya Airport

IDN60801

Issued at 8:32 am EST Monday 20 May 2019 (issued every 10 minutes, with the page automatically refreshed every 10 minutes)

About weather observations | Map of weather stations | Latest weather observations for NSW | Other Formats
Station Details ID: 069148 Name: MORUYA AIRPORT AWS Lat: -35.90 Lon: 150.14 Height: 4.0 m
Data from the previous 72 hours. | See also: Recent months at Moruya Airport
Date/Time
EST
Temp
°C
App
Temp
°C
Dew
Point
°C
Rel
Hum
%
Delta-T
°C
Wind Press
QNH
hPa
Press
MSL
hPa
Rain since
9am
mm
Dir  Spd
km/h
Gust
km/h
Spd
kts
Gust
kts
20/08:30am 12.5 12.0 12.0 97 0.3 WSW 6 7 3 4 1026.3 1026.3 0.0
20/08:00am 9.5 9.3 9.0 97 0.2 CALM 0 0 0 0 1026.2 1026.2 0.0
20/07:30am 7.9 7.3 7.5 97 0.2 CALM 0 0 0 0 1026.0 1026.0 0.0
20/07:17am 7.4 6.7 7.0 97 0.2 CALM 0 0 0 0 1026.0 1026.0 0.0
20/07:00am 6.9 6.1 6.3 96 0.3 CALM 0 0 0 0 1025.9 1025.9 0.0
20/06:30am 7.0 5.0 6.4 96 0.3 WSW 6 7 3 4 1025.9 1025.9 0.0
20/06:00am 6.8 5.9 6.2 96 0.3 CALM 0 0 0 0 1026.0 1026.0 0.0
20/05:30am 6.9 6.1 6.3 96 0.3 CALM 0 0 0 0 1025.9 1025.9 0.0
20/05:00am 7.3 6.5 6.7 96 0.3 CALM 0 0 0 0 1026.0 1026.0 0.0
20/04:30am 7.5 6.0 6.9 96 0.3 W 4 11 2 6 1026.1 1026.1 0.0
20/04:00am 7.8 7.2 7.2 96 0.3 CALM 0 0 0 0 1026.1 1026.1 0.0
20/03:30am 8.3 7.8 7.7 96 0.3 CALM 0 0 0 0 1026.2 1026.2 0.0
20/03:00am 8.4 7.5 7.8 96 0.3 W 2 6 1 3 1026.4 1026.4 0.0
20/02:30am 8.4 7.9 7.8 96 0.3 CALM 0 0 0 0 1026.5 1026.5 0.0
20/02:15am 9.0 8.6 8.4 96 0.3 CALM 0 0 0 0 1026.5 1026.5 0.0
20/02:11am 8.7 8.3 8.1 96 0.3 CALM 0 0 0 0 1026.6 1026.6 0.0
20/02:00am 8.6 8.1 8.0 96 0.3 CALM 0 0 0 0 1026.7 1026.7 0.0
20/01:58am 8.3 7.7 7.5 95 0.4 CALM 0 0 0 0 1026.7 1026.7 0.0
20/01:55am 8.5 8.0 7.7 95 0.4 CALM 0 0 0 0 1026.8 1026.8 0.0
20/01:33am 8.9 8.5 8.3 96 0.3 CALM 0 0 0 0 1026.8 1026.8 0.0
20/01:30am 9.1 8.8 8.5 96 0.3 CALM 0 0 0 0 1026.9 1026.9 0.0
20/01:12am 8.6 8.1 7.8 95 0.4 CALM 0 7 0 4 1027.0 1027.0 0.0
20/01:00am 9.4 9.1 8.6 95 0.4 CALM 0 0 0 0 1027.0 1027.0 0.0
20/12:54am 8.9 8.5 8.1 95 0.4 CALM 0 0 0 0 1027.0 1027.0 0.0
20/12:31am 9.5 9.2 8.7 95 0.4 CALM 0 0 0 0 1027.2 1027.2 0.0
20/12:30am 9.6 9.3 8.8 95 0.4 CALM 0 0 0 0 1027.2 1027.2 0.0
20/12:00am 9.8 9.6 9.0 95 0.4 CALM 0 0 0 0 1027.5 1027.5 0.0
 
Date/Time
EST
Temp
°C
App
Temp
°C
Dew
Point
°C
Rel
Hum
%
Delta-T
°C
Wind Press
QNH
hPa
Press
MSL
hPa
Rain since
9am
mm
Dir  Spd
km/h
Gust
km/h
Spd
kts
Gust
kts
19/11:30pm 10.1 10.0 9.3 95 0.4 CALM 0 0 0 0 1027.6 1027.6 0.0
19/11:27pm 10.1 10.0 9.3 95 0.4 CALM 0 0 0 0 1027.6 1027.6 0.0
19/11:17pm 10.6 10.6 9.8 95 0.4 CALM 0 0 0 0 1027.6 1027.6 0.0
19/11:00pm 10.8 10.9 10.0 95 0.4 CALM 0 0 0 0 1027.7 1027.7 0.0
19/10:58pm 10.7 10.7 9.9 95 0.4 CALM 0 0 0 0 1027.7 1027.7 0.0
19/10:53pm 10.7 10.7 9.9 95 0.4 CALM 0 0 0 0 1027.7 1027.7 0.0
19/10:30pm 11.0 11.1 10.2 95 0.4 CALM 0 6 0 3 1027.8 1027.8 0.0
19/10:25pm 10.3 9.8 9.4 94 0.4 WNW 2 6 1 3 1027.9 1027.9 0.0
19/10:00pm 10.8 9.7 9.9 94 0.5 NW 6 7 3 4 1027.9 1027.9 0.0
19/09:30pm 10.9 10.9 9.8 93 0.6 CALM 0 0 0 0 1028.0 1028.0 0.0
19/09:00pm 11.5 10.5 10.4 93 0.6 NW 6 7 3 4 1028.0 1028.0 0.0
19/08:30pm 12.2 12.5 10.9 92 0.7 CALM 0 2 0 1 1028.0 1028.0 0.0
19/08:28pm 12.2 12.5 10.9 92 0.7 CALM 0 2 0 1 1027.9 1027.9 0.0
19/08:10pm 12.8 13.3 11.5 92 0.7 CALM 0 0 0 0 1027.8 1027.8 0.0
19/08:00pm 12.9 13.4 11.5 91 0.7 CALM 0 0 0 0 1027.8 1027.8 0.0
19/07:30pm 13.5 13.0 12.1 91 0.8 WNW 6 9 3 5 1027.8 1027.8 0.0
19/07:00pm 13.9 13.7 11.8 87 1.1 NNW 4 9 2 5 1027.6 1027.6 0.0
19/06:30pm 15.2 14.8 12.3 83 1.6 NNW 6 9 3 5 1027.4 1027.4 0.0
19/06:00pm 17.0 16.0 13.3 79 2.1 N 11 17 6 9 1027.3 1027.3 0.0
19/05:30pm 17.6 16.2 13.5 77 2.3 N 13 17 7 9 1027.1 1027.1 0.0
19/05:00pm 18.1 16.7 13.4 74 2.6 N 13 20 7 11 1027.1 1027.1 0.0
19/04:30pm 18.9 16.3 13.3 70 3.2 NNE 19 26 10 14 1026.9 1026.9 0.0
19/04:00pm 20.0 17.4 13.7 67 3.6 NNE 20 24 11 13 1027.0 1027.0 0.0
19/03:30pm 20.3 17.2 13.3 64 4.0 NNE 22 30 12 16 1027.0 1027.0 0.0
19/03:00pm 20.2 17.1 13.4 65 3.9 NE 22 32 12 17 1027.3 1027.3 0.0
19/02:30pm 20.2 17.5 13.6 66 3.8 NE 20 28 11 15 1027.5 1027.5 0.0
19/02:00pm 19.9 17.3 13.8 68 3.5 NE 20 26 11 14 1027.6 1027.6 0.0
19/01:30pm 20.5 18.1 13.9 66 3.8 NE 19 24 10 13 1027.8 1027.8 0.0
19/01:00pm 20.0 17.1 13.0 64 3.9 NE 20 24 11 13 1028.3 1028.3 0.0
19/12:30pm 19.2 18.0 12.9 67 3.5 ENE 11 15 6 8 1028.9 1028.9 0.0
19/12:00pm 20.0 18.1 11.8 59 4.5 NE 13 17 7 9 1029.6 1029.6 0.0
19/11:30am 19.3 17.5 10.8 58 4.6 N 11 17 6 9 1030.0 1030.0 0.0
19/11:00am 19.0 18.4 12.3 65 3.7 NE 7 13 4 7 1030.5 1030.5 0.0
19/10:30am 17.5 16.6 12.6 73 2.7 ENE 9 11 5 6 1030.8 1030.8 0.0
19/10:00am 15.3 15.0 12.8 85 1.4 ENE 6 7 3 4 1031.3 1031.3 0.0
19/09:30am 14.0 14.9 12.9 93 0.6 CALM 0 6 0 3 1031.5 1031.5 0.0
19/09:00am 12.7 13.4 12.2 97 0.3 CALM 0 0 0 0 1031.5 1031.5 0.2
19/08:30am 11.3 11.6 10.8 97 0.3 CALM 0 0 0 0 1031.6 1031.6 0.0
19/08:26am 11.1 11.3 10.6 97 0.3 CALM 0 0 0 0 1031.6 1031.6 0.0
19/08:00am 8.9 8.6 8.5 97 0.2 CALM 0 0 0 0 1031.5 1031.5 0.0
19/07:30am 6.3 5.4 5.9 97 0.2 CALM 0 0 0 0 1031.4 1031.4 0.0
19/07:00am 6.1 4.0 5.7 97 0.2 WSW 6 7 3 4 1031.2 1031.2 0.0
19/06:40am 6.0 4.2 5.6 97 0.2 WSW 4 7 2 4 1031.2 1031.2 0.0
19/06:30am 6.1 4.4 5.7 97 0.2 SW 4 7 2 4 1031.1 1031.1 0.0
19/06:23am 6.2 4.1 5.8 97 0.2 SW 6 9 3 5 1031.0 1031.0 0.0
19/06:00am 5.8 4.7 5.2 96 0.3 CALM 0 0 0 0 1030.8 1030.8 0.0
19/05:35am 6.1 5.1 5.7 97 0.2 CALM 0 0 0 0 1030.5 1030.5 0.0
19/05:30am 6.2 5.2 5.8 97 0.2 CALM 0 6 0 3 1030.5 1030.5 0.0
19/05:17am 6.3 4.0 5.7 96 0.3 WNW 7 9 4 5 1030.2 1030.2 0.0
19/05:00am 6.4 4.3 5.8 96 0.3 NW 6 7 3 4 1030.1 1030.1 0.0
19/04:30am 6.4 5.4 5.8 96 0.3 CALM 0 0 0 0 1030.0 1030.0 0.0
19/04:17am 7.0 6.2 6.4 96 0.3 CALM 0 0 0 0 1030.0 1030.0 0.0
19/04:00am 6.5 5.6 5.9 96 0.3 CALM 0 0 0 0 1030.0 1030.0 0.0
19/03:39am 7.8 5.8 7.2 96 0.3 SW 7 9 4 5 1029.9 1029.9 0.0
19/03:30am 7.6 5.8 7.0 96 0.3 WSW 6 7 3 4 1029.9 1029.9 0.0
19/03:00am 7.4 5.9 6.8 96 0.3 WNW 4 9 2 5 1029.9 1029.9 0.0
19/02:40am 8.2 7.6 7.6 96 0.3 CALM 0 0 0 0 1030.1 1030.1 0.0
19/02:30am 7.9 7.3 7.3 96 0.3 CALM 0 0 0 0 1030.1 1030.1 0.0
19/02:00am 8.8 8.0 8.2 96 0.3 WSW 2 7 1 4 1030.5 1030.5 0.0
19/01:56am 8.9 8.5 8.3 96 0.3 CALM 0 4 0 2 1030.4 1030.4 0.0
19/01:30am 8.5 8.0 7.9 96 0.3 CALM 0 0 0 0 1030.7 1030.7 0.0
19/01:00am 8.4 7.5 7.8 96 0.3 WSW 2 7 1 4 1030.6 1030.6 0.0
19/12:30am 8.8 7.1 8.2 96 0.3 WSW 7 11 4 6 1030.8 1030.8 0.0
19/12:00am 9.4 7.9 8.6 95 0.4 WSW 6 7 3 4 1031.1 1031.1 0.0
 
Date/Time
EST
Temp
°C
App
Temp
°C
Dew
Point
°C
Rel
Hum
%
Delta-T
°C
Wind Press
QNH
hPa
Press
MSL
hPa
Rain since
9am
mm
Dir  Spd
km/h
Gust
km/h
Spd
kts
Gust
kts
18/11:30pm 10.1 9.6 9.3 95 0.4 WSW 2 7 1 4 1031.4 1031.4 0.0
18/11:00pm 10.5 10.5 9.7 95 0.4 CALM 0 6 0 3 1031.8 1031.8 0.0
18/10:30pm 10.3 10.2 9.5 95 0.4 CALM 0 0 0 0 1032.1 1032.1 0.0
18/10:00pm 10.2 8.9 9.3 94 0.4 WSW 6 7 3 4 1031.9 1031.9 0.0
18/09:58pm 10.1 8.8 9.2 94 0.4 WSW 6 7 3 4 1031.9 1031.9 0.0
18/09:30pm 11.0 10.3 10.1 94 0.5 SW 4 7 2 4 1031.8 1031.8 0.0
18/09:00pm 11.3 10.1 10.2 93 0.6 SW 7 11 4 6 1031.7 1031.7 0.0
18/08:30pm 12.3 11.0 11.2 93 0.6 WSW 9 11 5 6 1031.4 1031.4 0.0
18/08:00pm 12.3 11.4 11.2 93 0.6 WSW 7 11 4 6 1031.3 1031.3 0.0
18/07:30pm 12.5 12.6 11.4 93 0.6 SSW 2 7 1 4 1031.0 1031.0 0.0
18/07:00pm 12.5 12.9 11.4 93 0.6 CALM 0 0 0 0 1030.7 1030.7 0.0
18/06:30pm 12.0 11.5 10.7 92 0.7 SSE 4 6 2 3 1030.4 1030.4 0.0
18/06:00pm 12.5 11.7 10.9 90 0.8 SSE 6 6 3 3 1030.0 1030.0 0.0
18/05:30pm 13.7 13.8 11.6 87 1.1 SSE 2 6 1 3 1029.5 1029.5 0.0
18/05:00pm 15.9 15.2 12.1 78 2.1 SE 7 9 4 5 1029.6 1029.6 0.0
18/04:30pm 17.4 16.9 12.5 73 2.7 SE 7 11 4 6 1029.3 1029.3 0.0
18/04:00pm 17.9 17.1 12.8 72 2.8 ESE 9 13 5 7 1028.9 1028.9 0.0
18/03:30pm 18.1 16.9 12.8 71 3.0 ESE 11 13 6 7 1028.8 1028.8 0.0
18/03:00pm 18.6 17.8 12.8 69 3.2 E 9 13 5 7 1028.6 1028.6 0.0
18/02:30pm 18.5 17.4 13.1 71 3.0 ESE 11 15 6 8 1028.7 1028.7 0.0
18/02:00pm 18.3 16.7 12.7 70 3.1 E 13 15 7 8 1028.8 1028.8 0.0
18/01:30pm 18.5 16.9 12.9 70 3.1 E 13 15 7 8 1029.0 1029.0 0.0
18/01:00pm 18.7 17.7 13.3 71 3.0 E 11 15 6 8 1029.2 1029.2 0.0
18/12:30pm 18.3 17.2 13.0 71 3.0 E 11 13 6 7 1029.6 1029.6 0.0
18/12:00pm 18.3 17.4 12.5 69 3.2 E 9 11 5 6 1030.1 1030.1 0.0
18/11:30am 18.4 17.4 12.4 68 3.3 E 9 11 5 6 1030.7 1030.7 0.0
18/11:00am 17.9 16.8 12.1 69 3.2 SSE 9 11 5 6 1030.9 1030.9 0.0
18/10:30am 17.3 16.8 12.0 71 2.9 SSW 6 9 3 5 1030.9 1030.9 0.0
18/10:00am 15.2 13.9 11.4 78 2.0 SW 9 11 5 6 1031.1 1031.1 0.0
18/09:30am 13.4 12.0 10.9 85 1.3 SW 9 11 5 6 1031.1 1031.1 0.0
18/09:00am 12.3 11.4 11.2 93 0.6 SW 7 9 4 5 1031.1 1031.1 0.0
18/08:30am 10.8 9.8 10.2 96 0.3 WSW 6 7 3 4 1031.2 1031.2 0.0
18/08:00am 10.2 9.0 9.7 97 0.2 WSW 6 7 3 4 1030.8 1030.8 0.0
18/07:30am 8.3 6.5 7.9 97 0.2 WSW 7 9 4 5 1030.6 1030.6 0.0
18/07:29am 8.3 6.5 7.9 97 0.2 WSW 7 9 4 5 1030.6 1030.6 0.0
18/07:00am 7.1 5.0 6.5 96 0.3 W 7 9 4 5 1030.1 1030.1 0.0
18/06:30am 6.8 5.2 6.2 96 0.3 WSW 4 7 2 4 1029.7 1029.7 0.0
18/06:00am 7.1 5.0 6.5 96 0.3 WSW 7 7 4 4 1029.5 1029.5 0.0
18/05:30am 7.5 6.4 6.9 96 0.3 WSW 2 9 1 5 1029.2 1029.2 0.0
18/05:00am 7.3 5.8 6.7 96 0.3 WSW 4 6 2 3 1029.2 1029.2 0.0
18/04:30am 8.1 6.8 7.5 96 0.3 WSW 4 7 2 4 1028.9 1028.9 0.0
18/04:00am 7.6 6.5 6.9 95 0.3 WSW 2 7 1 4 1028.6 1028.6 0.0
18/03:30am 9.0 8.6 8.2 95 0.4 CALM 0 4 0 2 1028.7 1028.7 0.0
18/03:00am 9.4 7.8 8.6 95 0.4 W 7 11 4 6 1028.9 1028.9 0.0
18/02:32am 9.6 8.0 8.7 94 0.4 WSW 7 11 4 6 1029.0 1029.0 0.0
18/02:30am 9.8 8.3 9.0 95 0.4 WSW 7 11 4 6 1029.0 1029.0 0.0
18/02:18am 9.7 7.7 8.8 94 0.4 W 9 11 5 6 1029.0 1029.0 0.0
18/02:00am 9.8 7.9 8.9 94 0.4 WSW 9 11 5 6 1029.0 1029.0 0.0
18/01:36am 10.3 9.0 9.2 93 0.5 W 6 9 3 5 1028.9 1028.9 0.0
18/01:30am 10.6 9.2 9.5 93 0.6 W 7 9 4 5 1028.9 1028.9 0.0
18/01:00am 11.7 10.3 10.8 94 0.5 W 9 13 5 7 1029.0 1029.0 0.0
18/12:30am 11.8 10.0 10.9 94 0.5 W 11 17 6 9 1029.0 1029.0 0.0
18/12:00am 11.7 9.9 10.9 95 0.4 W 11 17 6 9 1029.0 1029.0 0.0
 
Date/Time
EST
Temp
°C
App
Temp
°C
Dew
Point
°C
Rel
Hum
%
Delta-T
°C
Wind Press
QNH
hPa
Press
MSL
hPa
Rain since
9am
mm
Dir  Spd
km/h
Gust
km/h
Spd
kts
Gust
kts
17/11:30pm 11.4 9.9 10.6 95 0.4 WSW 9 13 5 7 1029.1 1029.1 0.0
17/11:00pm 11.3 10.2 10.5 95 0.4 W 7 9 4 5 1029.2 1029.2 0.0
17/10:30pm 11.4 9.9 10.6 95 0.4 WSW 9 13 5 7 1029.3 1029.3 0.0
17/10:00pm 11.3 9.8 10.5 95 0.4 WSW 9 11 5 6 1029.5 1029.5 0.0
17/09:30pm 11.6 10.2 10.8 95 0.4 W 9 11 5 6 1029.5 1029.5 0.0
17/09:00pm 10.4 8.9 9.3 93 0.5 W 7 9 4 5 1029.2 1029.2 0.0
17/08:30pm 11.4 10.4 10.3 93 0.6 WSW 6 9 3 5 1028.9 1028.9 0.0
17/08:00pm 12.0 10.9 10.7 92 0.7 W 7 11 4 6 1028.5 1028.5 0.0
17/07:30pm 12.8 11.9 11.2 90 0.8 W 7 11 4 6 1028.3 1028.3 0.0
17/07:00pm 13.8 12.8 12.4 91 0.8 W 9 13 5 7 1027.9 1027.9 0.0
17/06:30pm 14.0 13.0 12.4 90 0.9 WSW 9 11 5 6 1027.4 1027.4 0.0
17/06:00pm 14.2 13.6 12.2 88 1.1 WSW 7 9 4 5 1027.0 1027.0 0.0
17/05:30pm 15.0 14.1 12.5 85 1.4 SW 9 15 5 8 1026.6 1026.6 0.0
17/05:00pm 15.9 14.9 12.3 79 2.0 SSW 9 15 5 8 1026.2 1026.2 0.0
17/04:30pm 17.5 17.0 12.8 74 2.6 S 7 11 4 6 1026.1 1026.1 0.0
17/04:00pm 18.0 16.4 12.7 71 2.9 SE 13 19 7 10 1025.8 1025.8 0.0
17/03:30pm 18.3 16.6 12.5 69 3.2 SSE 13 19 7 10 1025.5 1025.5 0.0
17/03:00pm 18.4 16.4 12.8 70 3.1 SE 15 20 8 11 1025.4 1025.4 0.0
17/02:30pm 18.8 16.5 13.0 69 3.3 SSE 17 20 9 11 1025.0 1025.0 0.0
17/02:00pm 18.4 16.6 13.3 72 2.9 SE 15 19 8 10 1025.0 1025.0 0.0
17/01:30pm 18.6 16.9 12.6 68 3.4 SE 13 17 7 9 1025.2 1025.2 0.0
17/01:00pm 18.6 17.3 12.4 67 3.4 ESE 11 15 6 8 1025.3 1025.3 0.0
17/12:30pm 18.2 16.8 12.2 68 3.3 SE 11 15 6 8 1025.5 1025.5 0.0
17/12:00pm 18.0 16.7 12.5 70 3.0 ESE 11 15 6 8 1025.8 1025.8 0.0
17/11:30am 17.6 16.1 11.9 69 3.1 E 11 13 6 7 1026.3 1026.3 0.0
17/11:00am 17.8 16.8 12.3 70 3.0 ENE 9 11 5 6 1026.6 1026.6 0.0
17/10:30am 17.1 16.3 11.2 68 3.2 ENE 6 9 3 5 1026.9 1026.9 0.0
17/10:00am 16.4 15.6 11.1 71 2.8 ENE 6 9 3 5 1027.0 1027.0 0.0
17/09:30am 14.8 14.4 11.0 78 2.0 ESE 4 7 2 4 1027.1 1027.1 0.0
17/09:00am 12.6 11.9 11.3 92 0.7 SW 6 9 3 5 1027.2 1027.2 0.0

Other formats

Comma delimited format used in spreadsheet applications
http://www.bom.gov.au/fwo/IDN60801/IDN60801.95937.axf

JavaScript Object Notation format (JSON) in row-major order
http://www.bom.gov.au/fwo/IDN60801/IDN60801.95937.json

Data quality

Most of these data are generated automatically and are frequently updated. Quality checks on data are not normally performed. It is possible for incorrect values to appear. Refer to information at About Latest Weather Observations and please check the disclaimer before using these data.